Kennedy — PB7633 — position and weather

sailwx.info

Track history (hours):
 
Tides and Currents Weather Stations Pressure Air Temp Water Temp Dewpoint Dewpoint Depression Visibility Wind Speed Wind Dir Waves Ship Positions

Kennedy

Last reported at 2014-Sep-06 07:10 UTC. Time now 2014-Sep-30 19:59 UTC.
Position N 51°55' E 004°30'.
Warning: this ship's position is 24 days out of date.

Length 15 m.

Type: Sailing vessel. MMSI: 245144000.

Date/timePositionNaut miles runAvg speedWind from/ knotsBaromVisibWave heightAir tempDewpointWater temp
2014-Sep-06 07:10N 51°55' E 004°30'0 0.0
2014-Sep-06 06:28N 51°55' E 004°30'0 0.0
2014-Sep-06 05:31N 51°55' E 004°30'0 0.0
2014-Sep-06 04:31N 51°55' E 004°30'0 0.0
2014-Sep-06 03:31N 51°55' E 004°30'0 0.0
2014-Sep-06 02:31N 51°55' E 004°30'0 0.0
2014-Sep-06 01:28N 51°55' E 004°30'0 0.0
2014-Sep-06 00:31N 51°55' E 004°30'0 0.0
2014-Sep-05 23:28N 51°55' E 004°30'0 0.0
2014-Sep-05 22:31N 51°55' E 004°30'0 0.0
2014-Sep-05 21:31N 51°55' E 004°30'10 5.0
2014-Sep-05 19:33N 51°55' E 004°14'7 5.9
2014-Sep-05 18:22N 51°59' E 004°05'39 6.6
2014-Sep-05 12:30N 51°44' E 003°07'7 7.5
2014-Sep-05 11:33N 51°41' E 002°57'20 9.0
2014-Sep-05 09:22N 51°32' E 002°28'8 9.4
2014-Sep-05 08:31N 51°30' E 002°16'8 8.8
2014-Sep-05 07:33N 51°30' E 002°02'7 7.3
2014-Sep-05 06:33N 51°29' E 001°51'6 6.4
2014-Sep-05 05:33N 51°25' E 001°43'7 6.9
2014-Sep-05 04:33N 51°22' E 001°33'5 5.0
2014-Sep-05 03:32N 51°20' E 001°25'0 0.0
2014-Sep-05 02:32N 51°20' E 001°25'0 0.0
2014-Sep-05 01:32N 51°20' E 001°25'0 0.0
2014-Sep-05 00:32N 51°20' E 001°25'0 0.0
2014-Sep-04 23:32N 51°20' E 001°25'0 0.0
2014-Sep-04 22:32N 51°20' E 001°25'0 0.0
2014-Sep-04 21:29N 51°20' E 001°25'0 0.0
2014-Sep-04 20:32N 51°20' E 001°25'0 0.0
2014-Sep-04 19:32N 51°20' E 001°25'0 0.0
2014-Sep-04 18:32N 51°20' E 001°25'0 0.0
2014-Sep-04 17:32N 51°20' E 001°25'0 0.1
2014-Sep-04 16:33N 51°20' E 001°25'6 5.9
2014-Sep-04 15:33N 51°26' E 001°26'9 6.6
2014-Sep-04 14:07N 51°29' E 001°12'4 6.7
2014-Sep-04 13:29N 51°29' E 001°05'7 7.1
2014-Sep-04 12:26N 51°29' E 000°53'7 7.5
2014-Sep-04 11:30N 51°30' E 000°42'7 7.5
2014-Sep-04 10:33N 51°30' E 000°30'7 7.2
2014-Sep-04 09:33N 51°27' E 000°20'7 6.7
2014-Sep-04 08:33N 51°30' E 000°10'  
2014-Aug-28 12:23N 51°31' E 000°09'6 7.5
2014-Aug-28 11:33N 51°28' E 000°17'6 6.4
2014-Aug-28 10:33N 51°29' E 000°28'7 7.3
2014-Aug-28 09:33N 51°30' E 000°39'14 1.2
2014-Aug-27 21:31N 51°30' E 001°01'7 7.7
2014-Aug-27 20:32N 51°29' E 001°13'7 7.2
2014-Aug-27 19:33N 51°29' E 001°25'7 6.7
2014-Aug-27 18:33N 51°31' E 001°35'7 6.6
2014-Aug-27 17:33N 51°33' E 001°46'7 5.9
2014-Aug-27 16:18N 51°36' E 001°56'  
Track history (hours):
 
Tides and Currents Weather Stations Pressure Air Temp Water Temp Dewpoint Dewpoint Depression Visibility Wind Speed Wind Dir Waves Ship Positions

Kennedy

Last reported at 2014-Sep-06 07:10 UTC. Time now 2014-Sep-30 19:59 UTC.
Position N 51°55' E 004°30'.
Warning: this ship's position is 24 days out of date.

Length 15 m.

Type: Sailing vessel. MMSI: 245144000.

Date/timePositionNaut miles runAvg speedWind from/ knotsBaromVisibWave heightAir tempDewpointWater temp
2014-Sep-06 07:10N 51°55' E 004°30'0 0.0
2014-Sep-06 06:28N 51°55' E 004°30'0 0.0
2014-Sep-06 05:31N 51°55' E 004°30'0 0.0
2014-Sep-06 04:31N 51°55' E 004°30'0 0.0
2014-Sep-06 03:31N 51°55' E 004°30'0 0.0
2014-Sep-06 02:31N 51°55' E 004°30'0 0.0
2014-Sep-06 01:28N 51°55' E 004°30'0 0.0
2014-Sep-06 00:31N 51°55' E 004°30'0 0.0
2014-Sep-05 23:28N 51°55' E 004°30'0 0.0
2014-Sep-05 22:31N 51°55' E 004°30'0 0.0
2014-Sep-05 21:31N 51°55' E 004°30'10 5.0
2014-Sep-05 19:33N 51°55' E 004°14'7 5.9
2014-Sep-05 18:22N 51°59' E 004°05'39 6.6
2014-Sep-05 12:30N 51°44' E 003°07'7 7.5
2014-Sep-05 11:33N 51°41' E 002°57'20 9.0
2014-Sep-05 09:22N 51°32' E 002°28'8 9.4
2014-Sep-05 08:31N 51°30' E 002°16'8 8.8
2014-Sep-05 07:33N 51°30' E 002°02'7 7.3
2014-Sep-05 06:33N 51°29' E 001°51'6 6.4
2014-Sep-05 05:33N 51°25' E 001°43'7 6.9
2014-Sep-05 04:33N 51°22' E 001°33'5 5.0
2014-Sep-05 03:32N 51°20' E 001°25'0 0.0
2014-Sep-05 02:32N 51°20' E 001°25'0 0.0
2014-Sep-05 01:32N 51°20' E 001°25'0 0.0
2014-Sep-05 00:32N 51°20' E 001°25'0 0.0
2014-Sep-04 23:32N 51°20' E 001°25'0 0.0
2014-Sep-04 22:32N 51°20' E 001°25'0 0.0
2014-Sep-04 21:29N 51°20' E 001°25'0 0.0
2014-Sep-04 20:32N 51°20' E 001°25'0 0.0
2014-Sep-04 19:32N 51°20' E 001°25'0 0.0
2014-Sep-04 18:32N 51°20' E 001°25'0 0.0
2014-Sep-04 17:32N 51°20' E 001°25'0 0.1
2014-Sep-04 16:33N 51°20' E 001°25'6 5.9
2014-Sep-04 15:33N 51°26' E 001°26'9 6.6
2014-Sep-04 14:07N 51°29' E 001°12'4 6.7
2014-Sep-04 13:29N 51°29' E 001°05'7 7.1
2014-Sep-04 12:26N 51°29' E 000°53'7 7.5
2014-Sep-04 11:30N 51°30' E 000°42'7 7.5
2014-Sep-04 10:33N 51°30' E 000°30'7 7.2
2014-Sep-04 09:33N 51°27' E 000°20'7 6.7
2014-Sep-04 08:33N 51°30' E 000°10'  
2014-Aug-28 12:23N 51°31' E 000°09'6 7.5
2014-Aug-28 11:33N 51°28' E 000°17'6 6.4
2014-Aug-28 10:33N 51°29' E 000°28'7 7.3
2014-Aug-28 09:33N 51°30' E 000°39'14 1.2
2014-Aug-27 21:31N 51°30' E 001°01'7 7.7
2014-Aug-27 20:32N 51°29' E 001°13'7 7.2
2014-Aug-27 19:33N 51°29' E 001°25'7 6.7
2014-Aug-27 18:33N 51°31' E 001°35'7 6.6
2014-Aug-27 17:33N 51°33' E 001°46'7 5.9
2014-Aug-27 16:18N 51°36' E 001°56'  

Dump ship's entire track history